This is the latest recevied weather packets stored in our database for station/object DB0NH-2. If no packets are shown the sender has not sent any weather packets the latest 1 day(s).
| Time | Temp. | Humidity | Pressure | Rain* | Wind** | Luminosity | Snow |
|---|---|---|---|---|---|---|---|
| 1778064968 | 16.67° C | 66% | 1006.4 hPa | 0 mm | - | 446 W/m² | - |
| 1778064368 | 16.11° C | 68% | 1006.5 hPa | 0 mm | - | 540 W/m² | - |
| 1778063768 | 15.56° C | 71% | 1006.4 hPa | 0 mm | - | 423 W/m² | - |
| 1778063168 | 16.11° C | 69% | 1006.5 hPa | 0 mm | - | 808 W/m² | - |
| 1778062568 | 15.56° C | 74% | 1006.6 hPa | 0 mm | - | 487 W/m² | - |
| 1778061968 | 15.56° C | 73% | 1006.7 hPa | 0 mm | - | 474 W/m² | - |
| 1778060168 | 15° C | 75% | 1006.7 hPa | 0 mm | - | 372 W/m² | - |
| 1778059568 | 15.56° C | 76% | 1006.6 hPa | 0 mm | - | 733 W/m² | - |
| 1778057768 | 13.89° C | 82% | 1006.7 hPa | 0 mm | - | 351 W/m² | - |
| 1778048168 | 11.67° C | 98% | 1006.1 hPa | 0 mm | - | 89 W/m² | - |
| 1778043367 | 11.11° C | 99% | 1006.2 hPa | 0 mm | - | 23 W/m² | - |
| 1778040967 | 10.56° C | 99% | 1006.1 hPa | 0 mm | - | 11 W/m² | - |
| 1778039167 | 11.11° C | 99% | 1006.1 hPa | 0 mm | - | 2 W/m² | - |
| 1778037967 | 11.11° C | 99% | 1005.9 hPa | 0 mm | - | 0 W/m² | - |
| 1778037367 | 11.11° C | 99% | 1006 hPa | 0 mm | - | 0 W/m² | - |
| 1778036768 | 11.11° C | 99% | 1006 hPa | 0 mm | - | 0 W/m² | - |
| 1778035567 | 11.11° C | 99% | 1006 hPa | 0 mm | - | 0 W/m² | - |
| 1778034367 | 11.11° C | 99% | 1006.1 hPa | 0 mm | - | 0 W/m² | - |
| 1778033767 | 11.11° C | 99% | 1006.2 hPa | 1.02 mm | - | 0 W/m² | - |
| 1778031967 | 11.11° C | 99% | 1006.3 hPa | 1.02 mm | - | 0 W/m² | - |
| 1778031367 | 11.11° C | 99% | 1006.4 hPa | 1.02 mm | - | 0 W/m² | - |
| 1778030767 | 11.11° C | 99% | 1006.4 hPa | 1.02 mm | - | 0 W/m² | - |
| 1778030167 | 11.11° C | 99% | 1006.4 hPa | 0 mm | - | 0 W/m² | - |
| 1778026567 | 11.11° C | 98% | 1006.9 hPa | 0 mm | - | 0 W/m² | - |
| 1778009768 | 11.67° C | 97% | 1007.1 hPa | 0.51 mm | - | 0 W/m² | - |
* Rain latest hour (hover to see other rain measurements)
** Current wind speed in m/s (hover to see current wind gust speed)